Terminal Aerodrome Forecast
Issued by NWS

Home | Current Version | Previous Version | Text Only | Print | Product List | Glossary On
Versions: 1 2 3 4 5 6 7 8 9 10 11 12 13 14 15 16 17 18 19 20 21 22 23 24 25 26 27 28 29 30 31 32
631
FTUS41 KOKX 231020 AAB
TAFTEB
TAF AMD
KTEB 231020Z 2310/2412 05005KT 1SM BR OVC003 WS020/20035KT
      TEMPO 2310/2311 1/2SM FG VV002
     FM231100 14005KT 2SM SHRA BR SCT004 OVC007 WS020/21040KT
     FM231400 18013G22KT 1SM SHRA BR BKN007 OVC012 WS020/20045KT
     FM231900 21010G16KT 4SM -SHRA SCT007 BKN015 WS020/20045KT
     FM232100 24008KT P6SM VCSH SCT015 BKN035
     FM232300 26012G20KT P6SM SCT070=

USA.gov is the U.S. government's official web portal to all federal, state and local government web resources and services.